Geian Maru — JD4125 — position and weather

sailwx.info

Track history (hours):
 
Tides and Currents Weather Stations Pressure Air Temp Water Temp Dewpoint Dewpoint Depression Visibility Wind Speed Wind Dir Waves Ship Positions

Geian Maru

Last reported at 2018-May-21 03:12 UTC. Time now 2018-May-21 14:42 UTC.
Position N 34°15' E 135°06'.

Length 62 m; draft 4.3 m.

Type: Cargo ship. MMSI: 431008867.

Date/timePositionNaut miles runAvg speedWind from/ knotsBaromVisibWave heightAir tempDewpointWater temp
2018-May-21 03:12N 34°15' E 135°06'0 0.3
2018-May-21 03:00N 34°15' E 135°06'0 0.0
2018-May-21 02:30N 34°15' E 135°06'0 0.0
2018-May-21 02:00N 34°15' E 135°06'0 0.0
2018-May-21 01:30N 34°15' E 135°06'0 0.1
2018-May-21 01:00N 34°15' E 135°06'0 0.0
2018-May-21 00:30N 34°15' E 135°06'0 0.0
2018-May-21 00:01N 34°15' E 135°06'0 0.0
2018-May-20 23:31N 34°15' E 135°06'0 0.0
2018-May-20 23:00N 34°15' E 135°06'0 0.0
2018-May-20 22:30N 34°15' E 135°06'0 0.0
2018-May-20 22:00N 34°15' E 135°06'0 0.0
2018-May-20 21:30N 34°15' E 135°06'0 0.0
2018-May-20 21:00N 34°15' E 135°06'0 0.0
2018-May-20 20:30N 34°15' E 135°06'0 0.0
2018-May-20 20:00N 34°15' E 135°06'0 0.0
2018-May-20 19:30N 34°15' E 135°06'0 0.0
2018-May-20 19:00N 34°15' E 135°06'0 0.0
2018-May-20 18:30N 34°15' E 135°06'0 0.0
2018-May-20 18:00N 34°15' E 135°06'0 0.0
2018-May-20 17:30N 34°15' E 135°06'0 0.0
2018-May-20 17:01N 34°15' E 135°06'0 0.0
2018-May-20 16:30N 34°15' E 135°06'0 0.1
2018-May-20 16:00N 34°15' E 135°06'0 0.0
2018-May-20 15:30N 34°15' E 135°06'0 0.1
2018-May-20 15:00N 34°15' E 135°06'0 0.0
2018-May-20 14:30N 34°15' E 135°06'0 0.0
2018-May-20 14:00N 34°15' E 135°06'2 3.1
2018-May-20 13:30N 34°15' E 135°04'5 9.2
2018-May-20 13:00N 34°20' E 135°04'611.0
2018-May-20 12:30N 34°25' E 135°04'511.0
2018-May-20 12:00N 34°31' E 135°04'510.7
2018-May-20 11:30N 34°36' E 135°03'610.8
2018-May-20 10:58N 34°36' E 134°56'511.8
2018-May-20 10:30N 34°39' E 134°50'  
2018-May-16 16:19N 34°43' E 134°30'411.3
2018-May-16 15:59N 34°44' E 134°34'2 0.1
2018-May-15 19:22N 34°45' E 134°35'10012.6
2018-May-15 11:27N 34°06' E 132°44'613.8
2018-May-15 11:00N 34°02' E 132°39'713.8
2018-May-15 10:30N 33°57' E 132°32'1913.1
2018-May-15 09:02N 33°50' E 132°11'10 9.2
2018-May-15 07:54N 33°50' E 131°58'511.9
2018-May-15 07:30N 33°55' E 131°56'610.7
2018-May-15 06:54N 33°60' E 131°52'0 1.0
2018-May-15 06:30N 34°00' E 131°52'0 0.0
2018-May-13 23:38N 34°00' E 131°52'0 2.5
2018-May-13 23:30N 33°60' E 131°52'0 0.6
2018-May-13 22:52N 33°60' E 131°51'0 0.0
2018-May-13 22:22N 33°60' E 131°51'0 0.0
2018-May-13 19:22N 33°60' E 131°51'0 0.0
2018-May-13 18:58N 33°60' E 131°51'0 0.0
2018-May-13 17:22N 33°60' E 131°51'0 0.0
2018-May-13 16:22N 33°60' E 131°51'0 0.0
2018-May-13 15:16N 33°60' E 131°51'0 0.0
2018-May-13 14:46N 33°60' E 131°51'0 0.2
2018-May-13 14:25N 33°60' E 131°51'3 7.5
2018-May-13 14:00N 33°58' E 131°49'611.5
2018-May-13 13:30N 33°52' E 131°47'611.9
2018-May-13 13:00N 33°46' E 131°46'611.6
2018-May-13 12:30N 33°40' E 131°46'611.4
2018-May-13 12:00N 33°35' E 131°46'611.2
2018-May-13 11:30N 33°29' E 131°45'612.3
2018-May-13 11:00N 33°23' E 131°43'612.0
2018-May-13 10:30N 33°18' E 131°40'2 0.2
2018-May-13 02:29N 33°16' E 131°40'2 2.2
2018-May-13 01:47N 33°15' E 131°41'0 0.0
2018-May-12 00:51N 33°16' E 131°41'3 8.8
2018-May-12 00:30N 33°19' E 131°40'5 0.6
2018-May-11 15:27N 33°24' E 131°43'913.0
2018-May-11 14:44N 33°31' E 131°50'313.0
2018-May-11 14:29N 33°33' E 131°52'612.6
2018-May-11 13:59N 33°38' E 131°57'612.5
2018-May-11 13:30N 33°43' E 132°01'712.5
2018-May-11 12:59N 33°48' E 132°07'611.4
2018-May-11 12:29N 33°53' E 132°09'611.5
2018-May-11 11:57N 33°59' E 132°12'612.7
2018-May-11 11:30N 34°04' E 132°16'712.3
2018-May-11 10:58N 34°10' E 132°19'612.1
2018-May-11 10:30N 34°15' E 132°21'611.3
2018-May-11 10:00N 34°18' E 132°27'4 6.8
2018-May-11 09:28N 34°20' E 132°30'0 0.0
2018-May-11 09:00N 34°20' E 132°30'0 0.0
2018-May-11 04:08N 34°20' E 132°30'0 0.5
2018-May-11 04:00N 34°20' E 132°30'0 0.2
2018-May-11 03:30N 34°20' E 132°30'  
Track history (hours):
 
Tides and Currents Weather Stations Pressure Air Temp Water Temp Dewpoint Dewpoint Depression Visibility Wind Speed Wind Dir Waves Ship Positions

Geian Maru

Last reported at 2018-May-21 03:12 UTC. Time now 2018-May-21 14:42 UTC.
Position N 34°15' E 135°06'.

Length 62 m; draft 4.3 m.

Type: Cargo ship. MMSI: 431008867.

Date/timePositionNaut miles runAvg speedWind from/ knotsBaromVisibWave heightAir tempDewpointWater temp
2018-May-21 03:12N 34°15' E 135°06'0 0.3
2018-May-21 03:00N 34°15' E 135°06'0 0.0
2018-May-21 02:30N 34°15' E 135°06'0 0.0
2018-May-21 02:00N 34°15' E 135°06'0 0.0
2018-May-21 01:30N 34°15' E 135°06'0 0.1
2018-May-21 01:00N 34°15' E 135°06'0 0.0
2018-May-21 00:30N 34°15' E 135°06'0 0.0
2018-May-21 00:01N 34°15' E 135°06'0 0.0
2018-May-20 23:31N 34°15' E 135°06'0 0.0
2018-May-20 23:00N 34°15' E 135°06'0 0.0
2018-May-20 22:30N 34°15' E 135°06'0 0.0
2018-May-20 22:00N 34°15' E 135°06'0 0.0
2018-May-20 21:30N 34°15' E 135°06'0 0.0
2018-May-20 21:00N 34°15' E 135°06'0 0.0
2018-May-20 20:30N 34°15' E 135°06'0 0.0
2018-May-20 20:00N 34°15' E 135°06'0 0.0
2018-May-20 19:30N 34°15' E 135°06'0 0.0
2018-May-20 19:00N 34°15' E 135°06'0 0.0
2018-May-20 18:30N 34°15' E 135°06'0 0.0
2018-May-20 18:00N 34°15' E 135°06'0 0.0
2018-May-20 17:30N 34°15' E 135°06'0 0.0
2018-May-20 17:01N 34°15' E 135°06'0 0.0
2018-May-20 16:30N 34°15' E 135°06'0 0.1
2018-May-20 16:00N 34°15' E 135°06'0 0.0
2018-May-20 15:30N 34°15' E 135°06'0 0.1
2018-May-20 15:00N 34°15' E 135°06'0 0.0
2018-May-20 14:30N 34°15' E 135°06'0 0.0
2018-May-20 14:00N 34°15' E 135°06'2 3.1
2018-May-20 13:30N 34°15' E 135°04'5 9.2
2018-May-20 13:00N 34°20' E 135°04'611.0
2018-May-20 12:30N 34°25' E 135°04'511.0
2018-May-20 12:00N 34°31' E 135°04'510.7
2018-May-20 11:30N 34°36' E 135°03'610.8
2018-May-20 10:58N 34°36' E 134°56'511.8
2018-May-20 10:30N 34°39' E 134°50'  
2018-May-16 16:19N 34°43' E 134°30'411.3
2018-May-16 15:59N 34°44' E 134°34'2 0.1
2018-May-15 19:22N 34°45' E 134°35'10012.6
2018-May-15 11:27N 34°06' E 132°44'613.8
2018-May-15 11:00N 34°02' E 132°39'713.8
2018-May-15 10:30N 33°57' E 132°32'1913.1
2018-May-15 09:02N 33°50' E 132°11'10 9.2
2018-May-15 07:54N 33°50' E 131°58'511.9
2018-May-15 07:30N 33°55' E 131°56'610.7
2018-May-15 06:54N 33°60' E 131°52'0 1.0
2018-May-15 06:30N 34°00' E 131°52'0 0.0
2018-May-13 23:38N 34°00' E 131°52'0 2.5
2018-May-13 23:30N 33°60' E 131°52'0 0.6
2018-May-13 22:52N 33°60' E 131°51'0 0.0
2018-May-13 22:22N 33°60' E 131°51'0 0.0
2018-May-13 19:22N 33°60' E 131°51'0 0.0
2018-May-13 18:58N 33°60' E 131°51'0 0.0
2018-May-13 17:22N 33°60' E 131°51'0 0.0
2018-May-13 16:22N 33°60' E 131°51'0 0.0
2018-May-13 15:16N 33°60' E 131°51'0 0.0
2018-May-13 14:46N 33°60' E 131°51'0 0.2
2018-May-13 14:25N 33°60' E 131°51'3 7.5
2018-May-13 14:00N 33°58' E 131°49'611.5
2018-May-13 13:30N 33°52' E 131°47'611.9
2018-May-13 13:00N 33°46' E 131°46'611.6
2018-May-13 12:30N 33°40' E 131°46'611.4
2018-May-13 12:00N 33°35' E 131°46'611.2
2018-May-13 11:30N 33°29' E 131°45'612.3
2018-May-13 11:00N 33°23' E 131°43'612.0
2018-May-13 10:30N 33°18' E 131°40'2 0.2
2018-May-13 02:29N 33°16' E 131°40'2 2.2
2018-May-13 01:47N 33°15' E 131°41'0 0.0
2018-May-12 00:51N 33°16' E 131°41'3 8.8
2018-May-12 00:30N 33°19' E 131°40'5 0.6
2018-May-11 15:27N 33°24' E 131°43'913.0
2018-May-11 14:44N 33°31' E 131°50'313.0
2018-May-11 14:29N 33°33' E 131°52'612.6
2018-May-11 13:59N 33°38' E 131°57'612.5
2018-May-11 13:30N 33°43' E 132°01'712.5
2018-May-11 12:59N 33°48' E 132°07'611.4
2018-May-11 12:29N 33°53' E 132°09'611.5
2018-May-11 11:57N 33°59' E 132°12'612.7
2018-May-11 11:30N 34°04' E 132°16'712.3
2018-May-11 10:58N 34°10' E 132°19'612.1
2018-May-11 10:30N 34°15' E 132°21'611.3
2018-May-11 10:00N 34°18' E 132°27'4 6.8
2018-May-11 09:28N 34°20' E 132°30'0 0.0
2018-May-11 09:00N 34°20' E 132°30'0 0.0
2018-May-11 04:08N 34°20' E 132°30'0 0.5
2018-May-11 04:00N 34°20' E 132°30'0 0.2
2018-May-11 03:30N 34°20' E 132°30'  

Dump ship's entire track history